Historique des mesures à Cassis (13260), France
Quotidien Résumé Décembre 18, 2017 Unités:  Métrique    US   Métrique/US
« Précédent (Jour)
Suivant (Jour) »
Quotidien Hebdomadaire Mensuel Annuel Période au choix
  Maximum: Minimum: Moyenne:
Température: TemperatureC °C 3.6 °C 5.7 °C
Point de rosée: DewpointC °C -3.8 °C -0 °C
Humidité: Humidity % 56 % 63 %
Vitesse du vent: 0 km/h 0 km/h 1.3 km/h
Rafales: 0 km/h - -
Vent:- - SE
Pression: PressurehPa hPa 1016.1 hPa -
Précipitations: 0.0 mm    
Historical Graphs
 
 
Mesures pour : Décembre 18, 2017
Heure Temperature Point de rosée Pression Vent Vitesse du vent Rafales Humidité Pluie (par heure) Conditions
TemperatureC °C DewpointC °C PressurehPa hPa Calm     Humidity % HourlyPrecipMM mm SoftwareType W/m2
00:10 5.2 °C -2.7 °C 1023.2 hPa Calm     57 % 0.0 mm open2300-1.11 W/m2
01:10 4.9 °C -2.7 °C 1023.2 hPa ENE 5.6 km/h 6.4 km/h 58 % 0.0 mm open2300-1.11 W/m2
02:10 4.8 °C -2.8 °C 1023.2 hPa Calm     58 % 0.0 mm open2300-1.11 W/m2
03:10 4.9 °C -2.9 °C 1023.2 hPa NW 15 km/h 30.7 km/h 57 % 0.0 mm open2300-1.11 W/m2
04:11 4.5 °C -2.8 °C 1023.2 hPa Calm     59 % 0.0 mm open2300-1.11 W/m2
05:10 4.3 °C -3.1 °C 1022.9 hPa Calm     59 % 0.0 mm open2300-1.11 W/m2
06:10 3.8 °C -3.1 °C 1022.2 hPa Calm     61 % 0.0 mm open2300-1.11 W/m2
07:10 3.6 °C -3.1 °C 1022.2 hPa Calm     62 % 0.0 mm open2300-1.11 W/m2
08:10 4.4 °C -3.2 °C 1022.6 hPa Calm     58 % 0.0 mm open2300-1.11 W/m2
09:10 4.3 °C -3.8 °C 1022.2 hPa Calm     56 % 0.0 mm open2300-1.11 W/m2
10:10 6.4 °C 0.3 °C 1022.2 hPa Calm     65 % 0.0 mm open2300-1.11 W/m2
11:10 6.9 °C 2.6 °C 1021.6 hPa Calm   16.3 km/h 74 % 0.0 mm open2300-1.11 W/m2
12:10 7.3 °C 2.9 °C 1020.2 hPa Calm   5.1 km/h 74 % 0.0 mm open2300-1.11 W/m2
13:10 7.4 °C 3.1 °C 1019.2 hPa Calm     74 % 0.0 mm open2300-1.11 W/m2
16:10 8.2 °C 3.7 °C 1016.5 hPa Calm     73 % 0.0 mm open2300-1.11 W/m2
17:10 8.1 °C 3.2 °C 1016.1 hPa NNE 9.3 km/h 14.5 km/h 71 % 0.0 mm open2300-1.11 W/m2
18:10 7.0 °C 2.5 °C 1017.5 hPa Calm     73 % 0.0 mm open2300-1.11 W/m2
19:10 6.4 °C 2.4 °C 1018.2 hPa Calm     76 % 0.0 mm open2300-1.11 W/m2
20:10 6.4 °C 2.3 °C 1018.8 hPa Calm     75 % 0.0 mm open2300-1.11 W/m2
21:10 6.4 °C 1.7 °C 1019.9 hPa Calm     72 % 0.0 mm open2300-1.11 W/m2
22:10 7.1 °C 2.4 °C 1020.5 hPa Calm     72 % 0.0 mm open2300-1.11 W/m2
23:11 7.8 °C 2.9 °C 1021.9 hPa Calm     71 % 0.0 mm open2300-1.11 W/m2
Observations météo à CASSIS
WU-History script by Weather Underground - 1 mb